嘉手納基地の過去48時間の天気

嘉手納基地 (Kadena ab)

現在時刻: 1/19 20:26 JST (1/19 11:26 UTC) 以下の時間は現地時間です。

過去48時間のMETAR気象情報
時間 風向 風速(m/s) 視程 気温(℃) 湿度(%) 気圧(hPa) 天気現象
19 19:56 東南東 3 10km以上 16.9 73 1021.4
19 18:56 東南東 3 10km以上 15.7 70 1021.1
19 17:56 南東 3 10km以上 19.9 58 1021
19 16:56 南東 4 10km以上 21.1 53 1021.4
19 15:56 南東 4 10km以上 22.3 49 1021.4
19 14:56 南東 4 10km以上 21.2 53 1021.7
19 13:56 東南東 5 10km以上 22.7 50 1022
19 12:56 5 10km以上 22.5 50 1022.4
19 11:56 4 10km以上 21.2 55 1023.8
19 10:56 3 10km以上 19 67 1024.5
19 09:56 北東 2 10km以上 17.3 75 1025.1
19 08:56 北東 2 10km以上 15.7 80 1024.8
19 07:56 東北東 2 10km以上 13.7 82 1024.5
19 06:56 東南東 2 10km以上 14.2 83 1023.8
19 05:56 北東 3 10km以上 12.4 86 1023.8
19 04:56 東北東 2 10km以上 12.2 84 1023.4
19 03:56 北東 3 10km以上 12.2 84 1024.1
19 02:56 東北東 2 10km以上 12.5 83 1024.4
19 01:56 北東 2 10km以上 12.7 81 1024.4
19 00:56 東北東 2 10km以上 11.5 84 1024.1
18 23:56 北東 3 10km以上 11.9 78 1024.8
18 22:56 北東 2 10km以上 11.9 79 1024.8
18 21:56 東北東 3 10km以上 12 79 1025.2
18 20:56 東北東 2 10km以上 12.1 71 1025.2
18 19:56 北北東 3 10km以上 14.6 66 1024.8
18 18:56 北北東 2 10km以上 12.2 74 1024.2
18 17:56 東北東 4 10km以上 15.5 60 1023.4
18 16:56 北東 6 10km以上 18.2 50 1023.8
18 15:56 北北東 6 10km以上 19.3 48 1023.7
18 14:56 北北東 6 10km以上 19.8 46 1023.7
18 13:56 北北東 7 10km以上 19.9 49 1023.7
18 12:56 北北東 4 10km以上 20.7 50 1024.7
18 11:56 北北東 6 10km以上 19.3 46 1025.4
18 10:56 北東 4 10km以上 18.6 47 1026.1
18 09:56 北東 6 10km以上 16.6 56 1026.1
18 08:56 北北東 4 10km以上 15.2 60 1025.8
18 07:56 北東 4 10km以上 11.3 72 1025.9
18 06:56 5 10km以上 13.7 56 1025.5
18 05:56 北北東 5 10km以上 13.7 58 1025.1
18 04:56 6 10km以上 14.1 57 1025.1
RODN 191056Z AUTO 11006KT 10SM CLR 17/12 A3014 RMK AO2 SLP214 T01690120 $
RODN 190956Z AUTO 11005KT 10SM CLR 16/10 A3013 RMK AO2 SLP211 T01570102 $
RODN 190856Z AUTO 13005KT 10SM CLR 20/11 A3013 RMK AO2 SLP210 T01990114 55006 $
RODN 190756Z AUTO 13007KT 10SM BKN065 21/11 A3014 RMK AO2 SLP214 T02110111 $
RODN 190656Z AUTO 13008KT 10SM BKN060 22/11 A3014 RMK AO2 SLP214 T02230111 $
RODN 190556Z AUTO 13007KT 10SM OVC055 21/11 A3015 RMK AO2 SLP217 T02120112 10235 20158 57020 $
RODN 190456Z AUTO 11010KT 10SM OVC055 23/12 A3016 RMK AO2 SLP220 T02270117 $
RODN 190356Z AUTO 10010KT 10SM BKN055 23/12 A3017 RMK AO2 SLP224 T02250115 $
RODN 190256Z AUTO 09007KT 10SM OVC055 21/12 A3021 RMK AO2 SLP238 T02120118 58010 $
RODN 190156Z AUTO 10005KT 10SM OVC050 19/13 A3023 RMK AO2 SLP245 T01900127 $
RODN 190056Z AUTO 04004KT 10SM OVC046 17/13 A3025 RMK AO2 SLP251 T01730128 $
RODN 182356Z AUTO 05004KT 10SM OVC060 16/12 A3024 RMK AO2 SLP248 T01570123 10157 20118 52009 $
RODN 182256Z AUTO 06004KT 10SM OVC060 14/11 A3023 RMK AO2 SLP245 T01370107 $
RODN 182156Z AUTO 12003KT 10SM OVC050 14/11 A3021 RMK AO2 SLP238 T01420113 $
RODN 182056Z AUTO 05005KT 10SM OVC050 12/10 A3021 RMK AO2 SLP238 T01240101 55005 $
RODN 181956Z AUTO 06004KT 10SM BKN050 12/10 A3020 RMK AO2 SLP234 T01220096 $
RODN 181856Z AUTO 05005KT 10SM OVC050 12/10 A3022 RMK AO2 SLP241 T01220096 $
RODN 181756Z AUTO 06004KT 10SM OVC046 13/10 A3023 RMK AO2 SLP244 T01250097 10127 20107 55003 $
RODN 181656Z AUTO 04004KT 10SM BKN045 13/10 A3023 RMK AO2 SLP244 T01270095 $
RODN 181556Z AUTO 06004KT 10SM OVC043 12/09 A3022 RMK AO2 SLP241 T01150089 $
RODN 181456Z AUTO 04005KT 10SM FEW045 12/08 A3024 RMK AO2 SLP248 T01190082 402090111 58005 $
RODN 181356Z AUTO 04003KT 10SM BKN045 12/08 A3024 RMK AO2 SLP248 T01190084 $
RODN 181256Z AUTO 06005KT 10SM BKN045 12/09 A3025 RMK AO2 SLP252 T01200085 $
RODN 181156Z AUTO 06004KT 10SM SCT044 12/07 A3025 RMK AO2 SLP252 T01210070 10200 20121 52016 $
RODN 181056Z AUTO 02005KT 10SM OVC041 15/08 A3024 RMK AO2 SLP248 T01460083 $
RODN 180956Z AUTO 03004KT 10SM BKN038 12/08 A3022 RMK AO2 SLP242 T01220077 $
RODN 180856Z AUTO 06008KT 10SM SCT042 16/08 A3020 RMK AO2 SLP234 T01550078 58001 $
RODN 180756Z AUTO 04011KT 10SM CLR 18/08 A3021 RMK AO2 SLP238 T01820076 $
RODN 180656Z AUTO 02012KT 10SM SCT047 19/08 A3021 RMK AO2 SLP237 T01930080 $
RODN 180556Z AUTO 02012KT 10SM SCT047 20/08 A3021 RMK AO2 SLP237 T01980078 10209 20153 57020 $
RODN 180456Z AUTO 02013KT 10SM SCT049 20/09 A3021 RMK AO2 SLP237 T01990089 $
RODN 180356Z AUTO 03008KT 10SM SCT042 21/10 A3024 RMK AO2 SLP247 T02070099 $
RODN 180256Z AUTO 02011KT 10SM FEW046 19/07 A3026 RMK AO2 SLP254 T01930074 58002 $
RODN 180156Z AUTO 04008KT 10SM CLR 19/07 A3028 RMK AO2 SLP261 T01860071 $
RODN 180056Z AUTO 04011KT 10SM CLR 17/08 A3028 RMK AO2 SLP261 T01660078 $
RODN 172356Z AUTO 03008KT 10SM CLR 15/08 A3027 RMK AO2 SLP258 70042 T01520075 10152 20111 52008 $
RODN 172256Z AUTO 05007KT 10SM FEW048 11/06 A3027 RMK AO2 SLP259 T01130064 $
RODN 172156Z AUTO 01009KT 10SM CLR 14/05 A3026 RMK AO2 SLP255 T01370051 $
RODN 172056Z AUTO 02010KT 10SM SCT048 14/06 A3025 RMK AO2 SLP251 T01370056 51003 $
RODN 171956Z AUTO 01012KT 10SM BKN044 14/06 A3025 RMK AO2 SLP251 T01410057 $